createdAt,value
2023-04-16T00:02:45.563Z,3.75
2023-04-16T00:07:53.027Z,4.50
2023-04-16T00:12:58.028Z,3.25
2023-04-16T00:18:02.756Z,2.00
2023-04-16T00:23:07.743Z,3.75
2023-04-16T00:28:12.641Z,4.25
2023-04-16T00:33:18.506Z,3.75
2023-04-16T00:38:23.622Z,5.25
2023-04-16T00:43:29.249Z,2.75
2023-04-16T00:48:34.249Z,4.50
2023-04-16T00:53:40.463Z,2.75
2023-04-16T00:58:45.338Z,3.50
2023-04-16T01:03:51.408Z,3.00
2023-04-16T01:08:56.422Z,5.00
2023-04-16T01:14:01.279Z,4.25
2023-04-16T01:19:06.161Z,4.50
2023-04-16T01:24:10.852Z,2.50
2023-04-16T01:29:16.662Z,4.50
2023-04-16T01:34:21.830Z,7.50
2023-04-16T01:39:26.772Z,4.50
2023-04-16T01:44:33.794Z,5.50
2023-04-16T01:49:38.836Z,4.75
2023-04-16T01:54:43.961Z,3.75
2023-04-16T01:59:49.018Z,6.00
2023-04-16T02:04:54.402Z,4.25
2023-04-16T02:10:00.304Z,7.00
2023-04-16T02:15:05.163Z,5.25
2023-04-16T02:20:11.647Z,6.75
2023-04-16T02:25:27.411Z,4.00
2023-04-16T02:30:37.232Z,5.25
2023-04-16T02:35:42.945Z,4.75
2023-04-16T02:40:47.930Z,5.75
2023-04-16T02:45:54.107Z,3.75
2023-04-16T02:51:00.048Z,5.75
2023-04-16T02:56:05.036Z,5.75
2023-04-16T03:01:09.994Z,3.25
2023-04-16T03:06:15.507Z,2.25
2023-04-16T03:11:21.820Z,3.25
2023-04-16T03:16:26.953Z,6.75
2023-04-16T03:21:32.639Z,4.50
2023-04-16T03:26:37.596Z,3.50
2023-04-16T03:31:43.617Z,2.00
2023-04-16T03:36:48.599Z,3.00
2023-04-16T03:41:54.049Z,3.75
2023-04-16T03:46:59.255Z,3.00
2023-04-16T03:52:04.220Z,1.50
2023-04-16T03:57:09.265Z,1.50
2023-04-16T04:02:14.858Z,2.75
2023-04-16T04:07:19.933Z,4.00
2023-04-16T04:12:25.525Z,2.00
2023-04-16T04:17:30.961Z,2.00
2023-04-16T04:22:36.234Z,1.25
2023-04-16T04:27:41.491Z,2.00
2023-04-16T04:32:47.661Z,1.50
2023-04-16T04:37:54.139Z,1.75
2023-04-16T04:42:59.428Z,2.75
2023-04-16T04:48:04.327Z,2.25
2023-04-16T04:53:11.657Z,2.75
2023-04-16T04:58:16.713Z,2.75
2023-04-16T05:03:22.996Z,5.25
2023-04-16T05:08:28.347Z,2.75
2023-04-16T05:13:33.368Z,4.00
2023-04-16T05:18:38.349Z,4.50
2023-04-16T05:23:43.236Z,3.00
2023-04-16T05:28:48.535Z,4.50
2023-04-16T05:33:53.688Z,2.00
2023-04-16T05:38:58.712Z,3.25
2023-04-16T05:44:04.220Z,2.75
2023-04-16T05:49:09.414Z,3.25
2023-04-16T05:54:14.892Z,3.25
2023-04-16T05:59:20.163Z,6.00
2023-04-16T06:04:25.232Z,3.75
2023-04-16T06:09:30.241Z,2.00
2023-04-16T06:14:35.123Z,2.00
2023-04-16T06:19:40.585Z,3.00
2023-04-16T06:24:46.623Z,2.25
2023-04-16T06:29:51.934Z,2.00
2023-04-16T06:34:57.568Z,2.50
2023-04-16T06:40:02.552Z,3.50
2023-04-16T06:45:08.097Z,4.00
2023-04-16T06:50:13.313Z,2.00
2023-04-16T06:55:18.218Z,3.00
2023-04-16T07:00:23.048Z,5.00
2023-04-16T07:05:28.561Z,4.00
2023-04-16T07:10:33.215Z,6.00
2023-04-16T07:15:38.828Z,7.00
2023-04-16T07:20:43.924Z,4.75
2023-04-16T07:25:48.621Z,4.00
2023-04-16T07:30:53.808Z,3.75
2023-04-16T07:35:58.977Z,5.00
2023-04-16T07:41:04.333Z,4.75
2023-04-16T07:46:09.263Z,4.00
2023-04-16T07:51:14.212Z,6.75
2023-04-16T07:56:19.351Z,5.50
2023-04-16T08:01:24.450Z,6.75
2023-04-16T08:06:29.319Z,5.50
2023-04-16T08:11:34.616Z,5.75
2023-04-16T08:16:40.302Z,4.50
2023-04-16T08:21:45.732Z,7.00
2023-04-16T08:26:50.591Z,4.75
2023-04-16T08:31:56.000Z,5.00
2023-04-16T08:37:02.436Z,4.25
2023-04-16T08:42:08.214Z,6.75
2023-04-16T08:47:14.578Z,5.50
2023-04-16T08:52:24.366Z,4.00
2023-04-16T08:57:38.685Z,2.50
2023-04-16T09:02:44.482Z,4.50
2023-04-16T09:07:50.252Z,3.75
2023-04-16T09:12:57.304Z,5.00
2023-04-16T09:18:02.015Z,6.00
2023-04-16T09:23:06.750Z,3.00
2023-04-16T09:28:12.406Z,5.00
2023-04-16T09:33:23.659Z,7.00
2023-04-16T09:38:30.430Z,6.25
2023-04-16T09:43:34.641Z,6.50
2023-04-16T09:48:38.909Z,10.25
2023-04-16T09:53:44.688Z,9.00
2023-04-16T09:58:49.550Z,6.00
2023-04-16T10:03:56.375Z,5.50
2023-04-16T10:09:00.950Z,7.75
2023-04-16T10:14:05.659Z,7.00
2023-04-16T10:19:10.372Z,7.00
2023-04-16T10:24:18.046Z,6.50
2023-04-16T10:29:23.203Z,13.00
2023-04-16T10:34:28.280Z,7.00
2023-04-16T10:39:34.458Z,11.75
2023-04-16T10:44:38.998Z,6.75
2023-04-16T10:49:44.964Z,6.25
2023-04-16T10:54:52.461Z,6.75
2023-04-16T10:59:56.912Z,8.25
2023-04-16T11:05:03.815Z,8.50
2023-04-16T11:10:09.223Z,6.50
2023-04-16T11:15:20.836Z,6.75
2023-04-16T11:20:26.788Z,6.75
2023-04-16T11:25:37.290Z,7.50
2023-04-16T11:30:43.079Z,6.00
2023-04-16T11:35:47.678Z,9.75
2023-04-16T11:40:55.514Z,8.00
2023-04-16T11:46:16.699Z,6.25
2023-04-16T11:51:30.341Z,3.50
2023-04-16T11:56:36.264Z,9.00
2023-04-16T12:01:41.792Z,10.00
2023-04-16T12:07:04.636Z,8.75
2023-04-16T12:12:28.866Z,6.50
2023-04-16T12:17:38.185Z,12.25
2023-04-16T12:22:47.729Z,13.25
2023-04-16T12:27:58.298Z,9.50
2023-04-16T12:33:17.080Z,10.25
2023-04-16T12:38:24.553Z,9.25
2023-04-16T12:43:30.600Z,7.50
2023-04-16T12:48:36.225Z,10.25
2023-04-16T12:53:41.673Z,6.75
2023-04-16T12:58:47.150Z,9.50
2023-04-16T13:03:53.225Z,9.25
2023-04-16T13:09:00.274Z,8.50
2023-04-16T13:14:06.989Z,7.75
2023-04-16T13:19:12.552Z,10.00
2023-04-16T13:24:18.201Z,7.50
2023-04-16T13:29:23.919Z,8.00
2023-04-16T13:34:29.380Z,8.25
2023-04-16T13:39:36.039Z,7.75
2023-04-16T13:44:41.561Z,9.75
2023-04-16T13:49:47.339Z,5.00
2023-04-16T13:54:53.017Z,9.25
2023-04-16T13:59:58.391Z,7.25
2023-04-16T14:05:03.975Z,8.50
2023-04-16T14:10:09.810Z,8.25
2023-04-16T14:15:16.499Z,11.75
2023-04-16T14:20:22.109Z,7.25
2023-04-16T14:25:28.107Z,11.00
2023-04-16T14:30:33.648Z,9.50
2023-04-16T14:35:39.098Z,7.00
2023-04-16T14:40:47.618Z,5.00
2023-04-16T14:45:54.299Z,12.00
2023-04-16T14:50:59.883Z,8.50
2023-04-16T14:56:05.566Z,7.25
2023-04-16T15:01:12.469Z,7.50
2023-04-16T15:06:19.169Z,8.00
2023-04-16T15:11:25.195Z,9.50
2023-04-16T15:16:30.743Z,6.50
2023-04-16T15:21:36.326Z,9.75
2023-04-16T15:26:42.178Z,9.50
2023-04-16T15:31:47.508Z,8.00
2023-04-16T15:36:53.403Z,7.25
2023-04-16T15:42:01.877Z,7.50
2023-04-16T15:47:10.281Z,6.75
2023-04-16T15:52:15.553Z,9.00
2023-04-16T15:57:21.070Z,8.50
2023-04-16T16:02:26.705Z,7.25
2023-04-16T16:07:32.964Z,5.00
2023-04-16T16:12:39.263Z,8.75
2023-04-16T16:17:44.762Z,7.25
2023-04-16T16:22:50.917Z,7.50
2023-04-16T16:27:56.477Z,7.75
2023-04-16T16:33:02.235Z,6.50
2023-04-16T16:38:07.908Z,11.50
2023-04-16T16:43:13.215Z,8.00
2023-04-16T16:48:18.665Z,8.00
2023-04-16T16:53:24.035Z,6.50
2023-04-16T16:58:29.408Z,8.25
2023-04-16T17:03:35.786Z,7.00
2023-04-16T17:08:41.413Z,8.25
2023-04-16T17:13:46.839Z,9.25
2023-04-16T17:18:52.386Z,7.75
2023-04-16T17:23:59.752Z,7.00
2023-04-16T17:29:05.965Z,7.00
2023-04-16T17:34:11.462Z,9.00
2023-04-16T17:39:16.708Z,9.25
2023-04-16T17:44:22.507Z,9.00
2023-04-16T17:49:27.657Z,6.25
2023-04-16T17:54:32.971Z,6.25
2023-04-16T17:59:37.767Z,10.00
2023-04-16T18:04:42.856Z,7.25
2023-04-16T18:09:48.043Z,8.50
2023-04-16T18:14:52.741Z,7.50
2023-04-16T18:19:58.830Z,7.75
2023-04-16T18:25:04.449Z,6.50
2023-04-16T18:30:18.945Z,7.00
2023-04-16T18:35:27.925Z,7.25
2023-04-16T18:40:36.293Z,7.00
2023-04-16T18:45:41.392Z,7.00
2023-04-16T18:50:46.322Z,8.00
2023-04-16T18:55:55.139Z,8.00
2023-04-16T19:00:59.815Z,7.00
2023-04-16T19:06:05.941Z,8.00
2023-04-16T19:11:10.830Z,9.25
2023-04-16T19:16:15.813Z,7.00
2023-04-16T19:21:20.832Z,9.25
2023-04-16T19:26:25.845Z,8.75
2023-04-16T19:31:31.138Z,7.50
2023-04-16T19:36:36.087Z,7.25
2023-04-16T19:41:40.949Z,6.75
2023-04-16T19:46:45.784Z,9.25
2023-04-16T19:51:50.384Z,8.50
2023-04-16T19:56:55.221Z,5.75
2023-04-16T20:02:00.493Z,7.75
2023-04-16T20:07:05.541Z,6.00
2023-04-16T20:12:10.201Z,6.25
2023-04-16T20:17:20.972Z,8.50
2023-04-16T20:22:26.526Z,6.75
2023-04-16T20:27:35.253Z,8.50
2023-04-16T20:32:40.350Z,7.00
2023-04-16T20:37:45.496Z,9.75
2023-04-16T20:42:52.266Z,8.50
2023-04-16T20:47:57.169Z,6.25
2023-04-16T20:53:02.215Z,7.75
2023-04-16T20:58:07.174Z,6.25
2023-04-16T21:03:12.050Z,7.50
2023-04-16T21:08:16.902Z,7.25
2023-04-16T21:13:22.461Z,6.00
2023-04-16T21:18:27.241Z,8.75
2023-04-16T21:23:32.255Z,8.00
2023-04-16T21:28:37.279Z,9.00
2023-04-16T21:33:42.076Z,9.25
2023-04-16T21:38:46.963Z,8.25
2023-04-16T21:43:51.901Z,8.00
2023-04-16T21:48:56.976Z,9.25
2023-04-16T21:54:01.874Z,9.25
2023-04-16T21:59:07.083Z,6.75
2023-04-16T22:04:13.478Z,9.50
2023-04-16T22:09:18.644Z,6.75
2023-04-16T22:14:23.766Z,12.00
2023-04-16T22:19:28.772Z,20.25
2023-04-16T22:24:33.701Z,16.00
2023-04-16T22:29:38.773Z,16.50
2023-04-16T22:34:43.731Z,18.25
2023-04-16T22:39:48.521Z,18.00
2023-04-16T22:44:53.382Z,14.00
2023-04-16T22:49:58.238Z,15.50
2023-04-16T22:55:03.424Z,14.00
2023-04-16T23:00:11.449Z,17.00
2023-04-16T23:05:16.311Z,20.25
2023-04-16T23:10:21.223Z,17.50
2023-04-16T23:15:26.279Z,14.00
2023-04-16T23:20:31.373Z,15.00
2023-04-16T23:25:36.164Z,15.00
2023-04-16T23:30:41.312Z,14.75
2023-04-16T23:35:46.050Z,17.50
2023-04-16T23:40:51.041Z,18.75
2023-04-16T23:45:55.991Z,17.00
2023-04-16T23:51:01.074Z,19.25
2023-04-16T23:56:06.050Z,18.25
